sensor_id;sensor_type;location;lat;lon;timestamp;P1;durP1;ratioP1;P2;durP2;ratioP2
12474;SDS011;6302;42.624;23.334;2023-12-20T00:00:11;16.93;;;13.30;;
12474;SDS011;6302;42.624;23.334;2023-12-20T00:02:38;13.63;;;11.27;;
12474;SDS011;6302;42.624;23.334;2023-12-20T00:05:05;13.80;;;10.47;;
12474;SDS011;6302;42.624;23.334;2023-12-20T00:07:33;17.50;;;13.10;;
12474;SDS011;6302;42.624;23.334;2023-12-20T00:09:59;16.87;;;13.43;;
12474;SDS011;6302;42.624;23.334;2023-12-20T00:12:28;16.20;;;11.67;;
12474;SDS011;6302;42.624;23.334;2023-12-20T00:14:54;12.50;;;9.33;;
12474;SDS011;6302;42.624;23.334;2023-12-20T00:17:21;12.00;;;9.47;;
12474;SDS011;6302;42.624;23.334;2023-12-20T00:19:48;14.30;;;10.60;;
12474;SDS011;6302;42.624;23.334;2023-12-20T00:22:15;13.27;;;10.00;;
12474;SDS011;6302;42.624;23.334;2023-12-20T00:24:41;13.10;;;10.90;;
12474;SDS011;6302;42.624;23.334;2023-12-20T00:27:08;11.93;;;10.63;;
12474;SDS011;6302;42.624;23.334;2023-12-20T00:29:36;10.07;;;8.07;;
12474;SDS011;6302;42.624;23.334;2023-12-20T00:32:03;10.50;;;9.20;;
12474;SDS011;6302;42.624;23.334;2023-12-20T00:34:30;11.70;;;9.60;;
12474;SDS011;6302;42.624;23.334;2023-12-20T00:36:57;13.97;;;10.23;;
12474;SDS011;6302;42.624;23.334;2023-12-20T00:39:24;16.43;;;11.80;;
12474;SDS011;6302;42.624;23.334;2023-12-20T00:41:50;14.73;;;12.50;;
12474;SDS011;6302;42.624;23.334;2023-12-20T00:44:17;13.03;;;10.60;;
12474;SDS011;6302;42.624;23.334;2023-12-20T00:46:45;12.27;;;10.97;;
12474;SDS011;6302;42.624;23.334;2023-12-20T00:49:12;10.67;;;9.57;;
12474;SDS011;6302;42.624;23.334;2023-12-20T00:51:39;11.17;;;9.43;;
12474;SDS011;6302;42.624;23.334;2023-12-20T00:54:05;10.00;;;9.00;;
12474;SDS011;6302;42.624;23.334;2023-12-20T00:56:32;10.47;;;8.60;;
12474;SDS011;6302;42.624;23.334;2023-12-20T00:58:59;9.33;;;6.87;;
12474;SDS011;6302;42.624;23.334;2023-12-20T01:01:26;7.90;;;6.23;;
12474;SDS011;6302;42.624;23.334;2023-12-20T01:03:54;7.57;;;6.00;;
12474;SDS011;6302;42.624;23.334;2023-12-20T01:06:21;7.00;;;5.77;;
12474;SDS011;6302;42.624;23.334;2023-12-20T01:08:47;9.53;;;8.40;;
12474;SDS011;6302;42.624;23.334;2023-12-20T01:11:14;7.87;;;6.37;;
12474;SDS011;6302;42.624;23.334;2023-12-20T01:13:41;6.03;;;5.53;;
12474;SDS011;6302;42.624;23.334;2023-12-20T01:16:10;7.40;;;5.77;;
12474;SDS011;6302;42.624;23.334;2023-12-20T01:18:37;6.83;;;6.23;;
12474;SDS011;6302;42.624;23.334;2023-12-20T01:21:06;6.87;;;5.90;;
12474;SDS011;6302;42.624;23.334;2023-12-20T01:23:32;10.33;;;8.27;;
12474;SDS011;6302;42.624;23.334;2023-12-20T01:25:59;11.03;;;9.47;;
12474;SDS011;6302;42.624;23.334;2023-12-20T01:28:26;11.03;;;8.73;;
12474;SDS011;6302;42.624;23.334;2023-12-20T01:30:53;11.30;;;8.90;;
12474;SDS011;6302;42.624;23.334;2023-12-20T01:33:20;13.90;;;10.63;;
12474;SDS011;6302;42.624;23.334;2023-12-20T01:35:47;11.63;;;9.70;;
12474;SDS011;6302;42.624;23.334;2023-12-20T01:38:15;13.40;;;10.47;;
12474;SDS011;6302;42.624;23.334;2023-12-20T01:40:43;30.43;;;21.77;;
12474;SDS011;6302;42.624;23.334;2023-12-20T01:43:10;14.93;;;13.23;;
12474;SDS011;6302;42.624;23.334;2023-12-20T01:45:37;17.33;;;13.27;;
12474;SDS011;6302;42.624;23.334;2023-12-20T01:48:04;17.37;;;13.50;;
12474;SDS011;6302;42.624;23.334;2023-12-20T01:50:32;20.03;;;16.20;;
12474;SDS011;6302;42.624;23.334;2023-12-20T01:53:02;27.40;;;22.67;;
12474;SDS011;6302;42.624;23.334;2023-12-20T01:55:33;24.30;;;19.23;;
12474;SDS011;6302;42.624;23.334;2023-12-20T01:58:02;21.47;;;15.17;;
12474;SDS011;6302;42.624;23.334;2023-12-20T02:00:30;23.40;;;18.43;;
12474;SDS011;6302;42.624;23.334;2023-12-20T02:02:57;21.87;;;14.80;;
12474;SDS011;6302;42.624;23.334;2023-12-20T02:05:27;23.50;;;15.67;;
12474;SDS011;6302;42.624;23.334;2023-12-20T02:07:54;22.30;;;17.43;;
12474;SDS011;6302;42.624;23.334;2023-12-20T02:10:21;17.97;;;13.17;;
12474;SDS011;6302;42.624;23.334;2023-12-20T02:12:50;12.87;;;11.40;;
12474;SDS011;6302;42.624;23.334;2023-12-20T02:15:16;13.73;;;11.00;;
12474;SDS011;6302;42.624;23.334;2023-12-20T02:17:43;16.30;;;11.37;;
12474;SDS011;6302;42.624;23.334;2023-12-20T02:20:12;15.73;;;11.47;;
12474;SDS011;6302;42.624;23.334;2023-12-20T02:22:40;16.50;;;12.47;;
12474;SDS011;6302;42.624;23.334;2023-12-20T02:25:07;14.97;;;13.17;;
12474;SDS011;6302;42.624;23.334;2023-12-20T02:27:34;18.50;;;12.33;;
12474;SDS011;6302;42.624;23.334;2023-12-20T02:30:01;14.83;;;12.40;;
12474;SDS011;6302;42.624;23.334;2023-12-20T02:32:28;15.37;;;12.33;;
12474;SDS011;6302;42.624;23.334;2023-12-20T02:34:55;12.90;;;10.33;;
12474;SDS011;6302;42.624;23.334;2023-12-20T02:37:22;12.37;;;10.07;;
12474;SDS011;6302;42.624;23.334;2023-12-20T02:39:50;14.60;;;11.53;;
12474;SDS011;6302;42.624;23.334;2023-12-20T02:42:17;14.97;;;12.80;;
12474;SDS011;6302;42.624;23.334;2023-12-20T02:44:44;14.93;;;10.70;;
12474;SDS011;6302;42.624;23.334;2023-12-20T02:47:11;16.60;;;12.23;;
12474;SDS011;6302;42.624;23.334;2023-12-20T02:49:37;9.40;;;8.17;;
12474;SDS011;6302;42.624;23.334;2023-12-20T02:52:04;10.13;;;9.00;;
12474;SDS011;6302;42.624;23.334;2023-12-20T02:54:31;12.57;;;10.40;;
12474;SDS011;6302;42.624;23.334;2023-12-20T02:56:59;15.73;;;11.00;;
12474;SDS011;6302;42.624;23.334;2023-12-20T02:59:26;9.97;;;8.97;;
12474;SDS011;6302;42.624;23.334;2023-12-20T03:01:53;12.37;;;9.73;;
12474;SDS011;6302;42.624;23.334;2023-12-20T03:04:20;12.73;;;10.17;;
12474;SDS011;6302;42.624;23.334;2023-12-20T03:06:46;12.83;;;11.00;;
12474;SDS011;6302;42.624;23.334;2023-12-20T03:09:13;15.33;;;11.63;;
12474;SDS011;6302;42.624;23.334;2023-12-20T03:11:40;17.13;;;11.07;;
12474;SDS011;6302;42.624;23.334;2023-12-20T03:14:08;19.07;;;14.60;;
12474;SDS011;6302;42.624;23.334;2023-12-20T03:16:35;22.77;;;16.33;;
12474;SDS011;6302;42.624;23.334;2023-12-20T03:19:02;24.67;;;16.80;;
12474;SDS011;6302;42.624;23.334;2023-12-20T03:21:29;21.07;;;16.43;;
12474;SDS011;6302;42.624;23.334;2023-12-20T03:23:55;19.10;;;14.30;;
12474;SDS011;6302;42.624;23.334;2023-12-20T03:26:22;19.10;;;13.83;;
12474;SDS011;6302;42.624;23.334;2023-12-20T03:28:49;21.73;;;16.30;;
12474;SDS011;6302;42.624;23.334;2023-12-20T03:31:17;26.47;;;21.60;;
12474;SDS011;6302;42.624;23.334;2023-12-20T03:33:44;25.70;;;19.13;;
12474;SDS011;6302;42.624;23.334;2023-12-20T03:36:11;25.93;;;18.37;;
12474;SDS011;6302;42.624;23.334;2023-12-20T03:38:38;25.33;;;16.47;;
12474;SDS011;6302;42.624;23.334;2023-12-20T03:41:05;21.90;;;16.50;;
12474;SDS011;6302;42.624;23.334;2023-12-20T03:43:33;24.03;;;17.33;;
12474;SDS011;6302;42.624;23.334;2023-12-20T03:46:00;16.60;;;13.67;;
12474;SDS011;6302;42.624;23.334;2023-12-20T03:48:30;16.17;;;13.03;;
12474;SDS011;6302;42.624;23.334;2023-12-20T03:50:57;16.80;;;13.00;;
12474;SDS011;6302;42.624;23.334;2023-12-20T03:53:23;18.33;;;14.80;;
12474;SDS011;6302;42.624;23.334;2023-12-20T03:55:50;16.07;;;14.37;;
12474;SDS011;6302;42.624;23.334;2023-12-20T03:58:17;19.00;;;15.30;;
12474;SDS011;6302;42.624;23.334;2023-12-20T04:00:43;22.80;;;14.57;;
12474;SDS011;6302;42.624;23.334;2023-12-20T04:03:10;16.57;;;14.57;;
12474;SDS011;6302;42.624;23.334;2023-12-20T04:05:39;19.03;;;14.30;;
12474;SDS011;6302;42.624;23.334;2023-12-20T04:08:06;18.10;;;14.87;;
12474;SDS011;6302;42.624;23.334;2023-12-20T04:10:33;20.37;;;15.60;;
12474;SDS011;6302;42.624;23.334;2023-12-20T04:13:00;18.40;;;15.10;;
12474;SDS011;6302;42.624;23.334;2023-12-20T04:15:27;16.20;;;13.53;;
12474;SDS011;6302;42.624;23.334;2023-12-20T04:17:54;19.80;;;14.53;;
12474;SDS011;6302;42.624;23.334;2023-12-20T04:20:20;19.70;;;16.23;;
12474;SDS011;6302;42.624;23.334;2023-12-20T04:22:48;18.37;;;14.70;;
12474;SDS011;6302;42.624;23.334;2023-12-20T04:25:15;20.53;;;15.93;;
12474;SDS011;6302;42.624;23.334;2023-12-20T04:27:42;23.30;;;15.77;;
12474;SDS011;6302;42.624;23.334;2023-12-20T04:30:09;21.33;;;15.17;;
12474;SDS011;6302;42.624;23.334;2023-12-20T04:32:36;19.80;;;15.13;;
12474;SDS011;6302;42.624;23.334;2023-12-20T04:35:03;18.73;;;14.57;;
12474;SDS011;6302;42.624;23.334;2023-12-20T04:37:30;18.33;;;14.47;;
12474;SDS011;6302;42.624;23.334;2023-12-20T04:39:59;17.90;;;14.23;;
12474;SDS011;6302;42.624;23.334;2023-12-20T04:42:25;21.17;;;15.53;;
12474;SDS011;6302;42.624;23.334;2023-12-20T04:44:52;17.10;;;12.57;;
12474;SDS011;6302;42.624;23.334;2023-12-20T04:47:19;15.60;;;12.00;;
12474;SDS011;6302;42.624;23.334;2023-12-20T04:49:46;17.07;;;13.50;;
12474;SDS011;6302;42.624;23.334;2023-12-20T04:52:13;20.97;;;14.90;;
12474;SDS011;6302;42.624;23.334;2023-12-20T04:54:40;30.87;;;23.90;;
12474;SDS011;6302;42.624;23.334;2023-12-20T04:57:09;28.10;;;21.70;;
12474;SDS011;6302;42.624;23.334;2023-12-20T04:59:36;22.77;;;16.67;;
12474;SDS011;6302;42.624;23.334;2023-12-20T05:02:02;20.00;;;17.93;;
12474;SDS011;6302;42.624;23.334;2023-12-20T05:04:29;23.93;;;19.27;;
12474;SDS011;6302;42.624;23.334;2023-12-20T05:06:56;14.93;;;12.87;;
12474;SDS011;6302;42.624;23.334;2023-12-20T05:09:23;13.20;;;11.37;;
12474;SDS011;6302;42.624;23.334;2023-12-20T05:11:50;11.20;;;10.13;;
12474;SDS011;6302;42.624;23.334;2023-12-20T05:14:18;14.10;;;11.53;;
12474;SDS011;6302;42.624;23.334;2023-12-20T05:16:45;13.27;;;10.30;;
12474;SDS011;6302;42.624;23.334;2023-12-20T05:19:12;14.70;;;11.90;;
12474;SDS011;6302;42.624;23.334;2023-12-20T05:21:39;14.47;;;12.10;;
12474;SDS011;6302;42.624;23.334;2023-12-20T05:24:06;16.87;;;12.00;;
12474;SDS011;6302;42.624;23.334;2023-12-20T05:26:32;16.60;;;11.70;;
12474;SDS011;6302;42.624;23.334;2023-12-20T05:28:59;11.33;;;9.87;;
12474;SDS011;6302;42.624;23.334;2023-12-20T05:31:28;11.40;;;10.00;;
12474;SDS011;6302;42.624;23.334;2023-12-20T05:33:54;16.70;;;12.77;;
12474;SDS011;6302;42.624;23.334;2023-12-20T05:36:21;13.00;;;10.80;;
12474;SDS011;6302;42.624;23.334;2023-12-20T05:38:48;12.77;;;10.17;;
12474;SDS011;6302;42.624;23.334;2023-12-20T05:41:15;16.33;;;13.77;;
12474;SDS011;6302;42.624;23.334;2023-12-20T05:43:42;50.47;;;38.30;;
12474;SDS011;6302;42.624;23.334;2023-12-20T05:46:09;37.73;;;29.33;;
12474;SDS011;6302;42.624;23.334;2023-12-20T05:48:40;30.30;;;21.87;;
12474;SDS011;6302;42.624;23.334;2023-12-20T05:51:07;20.70;;;17.90;;
12474;SDS011;6302;42.624;23.334;2023-12-20T05:53:34;20.83;;;15.70;;
12474;SDS011;6302;42.624;23.334;2023-12-20T05:56:01;21.77;;;16.67;;
12474;SDS011;6302;42.624;23.334;2023-12-20T05:58:27;19.73;;;15.40;;
12474;SDS011;6302;42.624;23.334;2023-12-20T06:00:54;25.40;;;17.83;;
12474;SDS011;6302;42.624;23.334;2023-12-20T06:03:21;33.03;;;22.17;;
12474;SDS011;6302;42.624;23.334;2023-12-20T06:05:50;33.00;;;21.50;;
12474;SDS011;6302;42.624;23.334;2023-12-20T06:08:17;33.50;;;22.50;;
12474;SDS011;6302;42.624;23.334;2023-12-20T06:10:44;35.50;;;22.07;;
12474;SDS011;6302;42.624;23.334;2023-12-20T06:13:11;35.70;;;22.33;;
12474;SDS011;6302;42.624;23.334;2023-12-20T06:15:39;29.87;;;21.10;;
12474;SDS011;6302;42.624;23.334;2023-12-20T06:18:08;31.70;;;22.47;;
12474;SDS011;6302;42.624;23.334;2023-12-20T06:20:35;34.63;;;22.63;;
12474;SDS011;6302;42.624;23.334;2023-12-20T06:23:03;31.97;;;20.53;;
12474;SDS011;6302;42.624;23.334;2023-12-20T06:25:30;29.43;;;19.80;;
12474;SDS011;6302;42.624;23.334;2023-12-20T06:27:57;25.10;;;17.17;;
12474;SDS011;6302;42.624;23.334;2023-12-20T06:30:23;29.27;;;20.67;;
12474;SDS011;6302;42.624;23.334;2023-12-20T06:32:52;24.50;;;18.37;;
12474;SDS011;6302;42.624;23.334;2023-12-20T06:35:19;28.70;;;21.40;;
12474;SDS011;6302;42.624;23.334;2023-12-20T06:37:46;25.60;;;19.70;;
12474;SDS011;6302;42.624;23.334;2023-12-20T06:40:14;29.50;;;21.30;;
12474;SDS011;6302;42.624;23.334;2023-12-20T06:42:42;24.60;;;18.93;;
12474;SDS011;6302;42.624;23.334;2023-12-20T06:45:09;33.40;;;21.17;;
12474;SDS011;6302;42.624;23.334;2023-12-20T06:47:37;29.30;;;20.47;;
12474;SDS011;6302;42.624;23.334;2023-12-20T06:50:03;25.37;;;18.87;;
12474;SDS011;6302;42.624;23.334;2023-12-20T06:52:33;25.67;;;19.20;;
12474;SDS011;6302;42.624;23.334;2023-12-20T06:55:00;29.50;;;21.60;;
12474;SDS011;6302;42.624;23.334;2023-12-20T06:57:28;28.83;;;21.03;;
12474;SDS011;6302;42.624;23.334;2023-12-20T06:59:56;31.43;;;22.33;;
12474;SDS011;6302;42.624;23.334;2023-12-20T07:02:23;29.37;;;20.73;;
12474;SDS011;6302;42.624;23.334;2023-12-20T07:04:49;33.27;;;23.67;;
12474;SDS011;6302;42.624;23.334;2023-12-20T07:07:16;40.97;;;28.17;;
12474;SDS011;6302;42.624;23.334;2023-12-20T07:09:43;40.13;;;27.17;;
12474;SDS011;6302;42.624;23.334;2023-12-20T07:12:09;43.97;;;29.33;;
12474;SDS011;6302;42.624;23.334;2023-12-20T07:14:38;39.70;;;28.43;;
12474;SDS011;6302;42.624;23.334;2023-12-20T07:17:04;34.80;;;26.10;;
12474;SDS011;6302;42.624;23.334;2023-12-20T07:19:36;34.73;;;24.90;;
12474;SDS011;6302;42.624;23.334;2023-12-20T07:22:03;34.00;;;25.10;;
12474;SDS011;6302;42.624;23.334;2023-12-20T07:24:30;39.50;;;28.87;;
12474;SDS011;6302;42.624;23.334;2023-12-20T07:26:57;32.53;;;25.57;;
12474;SDS011;6302;42.624;23.334;2023-12-20T07:29:24;31.87;;;25.77;;
12474;SDS011;6302;42.624;23.334;2023-12-20T07:31:53;31.47;;;24.70;;
12474;SDS011;6302;42.624;23.334;2023-12-20T07:34:20;32.60;;;24.10;;
12474;SDS011;6302;42.624;23.334;2023-12-20T07:36:47;30.87;;;23.40;;
12474;SDS011;6302;42.624;23.334;2023-12-20T07:39:13;39.67;;;31.90;;
12474;SDS011;6302;42.624;23.334;2023-12-20T07:41:41;44.37;;;34.30;;
12474;SDS011;6302;42.624;23.334;2023-12-20T07:44:07;41.37;;;31.73;;
12474;SDS011;6302;42.624;23.334;2023-12-20T07:46:34;47.23;;;35.70;;
12474;SDS011;6302;42.624;23.334;2023-12-20T07:49:03;44.13;;;35.90;;
12474;SDS011;6302;42.624;23.334;2023-12-20T07:51:33;48.33;;;37.00;;
12474;SDS011;6302;42.624;23.334;2023-12-20T07:54:00;70.67;;;50.80;;
12474;SDS011;6302;42.624;23.334;2023-12-20T07:56:28;93.13;;;62.97;;
12474;SDS011;6302;42.624;23.334;2023-12-20T07:58:55;59.23;;;44.47;;
12474;SDS011;6302;42.624;23.334;2023-12-20T08:01:22;55.53;;;41.90;;
12474;SDS011;6302;42.624;23.334;2023-12-20T08:03:49;57.97;;;44.83;;
12474;SDS011;6302;42.624;23.334;2023-12-20T08:06:17;57.50;;;44.20;;
12474;SDS011;6302;42.624;23.334;2023-12-20T08:08:44;50.33;;;42.40;;
12474;SDS011;6302;42.624;23.334;2023-12-20T08:11:10;63.27;;;42.83;;
12474;SDS011;6302;42.624;23.334;2023-12-20T08:13:37;52.83;;;39.70;;
12474;SDS011;6302;42.624;23.334;2023-12-20T08:16:05;53.67;;;42.23;;
12474;SDS011;6302;42.624;23.334;2023-12-20T08:18:32;61.00;;;44.20;;
12474;SDS011;6302;42.624;23.334;2023-12-20T08:20:58;57.00;;;39.53;;
12474;SDS011;6302;42.624;23.334;2023-12-20T08:23:27;58.03;;;41.97;;
12474;SDS011;6302;42.624;23.334;2023-12-20T08:25:54;59.50;;;46.83;;
12474;SDS011;6302;42.624;23.334;2023-12-20T08:28:21;55.87;;;43.53;;
12474;SDS011;6302;42.624;23.334;2023-12-20T08:30:48;63.40;;;50.73;;
12474;SDS011;6302;42.624;23.334;2023-12-20T08:33:18;54.97;;;44.17;;
12474;SDS011;6302;42.624;23.334;2023-12-20T08:35:45;56.60;;;41.87;;
12474;SDS011;6302;42.624;23.334;2023-12-20T08:38:12;51.63;;;39.77;;
12474;SDS011;6302;42.624;23.334;2023-12-20T08:40:40;81.73;;;50.67;;
12474;SDS011;6302;42.624;23.334;2023-12-20T08:43:07;58.23;;;41.53;;
12474;SDS011;6302;42.624;23.334;2023-12-20T08:45:34;57.33;;;42.80;;
12474;SDS011;6302;42.624;23.334;2023-12-20T08:48:01;57.93;;;45.87;;
12474;SDS011;6302;42.624;23.334;2023-12-20T08:50:28;64.17;;;47.63;;
12474;SDS011;6302;42.624;23.334;2023-12-20T08:52:55;67.80;;;50.03;;
12474;SDS011;6302;42.624;23.334;2023-12-20T08:55:22;62.07;;;49.47;;
12474;SDS011;6302;42.624;23.334;2023-12-20T08:57:50;63.80;;;51.80;;
12474;SDS011;6302;42.624;23.334;2023-12-20T09:00:17;70.57;;;55.97;;
12474;SDS011;6302;42.624;23.334;2023-12-20T09:02:49;70.57;;;54.93;;
12474;SDS011;6302;42.624;23.334;2023-12-20T09:05:16;75.57;;;58.40;;
12474;SDS011;6302;42.624;23.334;2023-12-20T09:07:43;76.33;;;58.77;;
12474;SDS011;6302;42.624;23.334;2023-12-20T09:10:09;73.33;;;57.17;;
12474;SDS011;6302;42.624;23.334;2023-12-20T09:12:36;67.77;;;56.17;;
12474;SDS011;6302;42.624;23.334;2023-12-20T09:15:06;72.70;;;56.93;;
12474;SDS011;6302;42.624;23.334;2023-12-20T09:17:33;72.87;;;54.27;;
12474;SDS011;6302;42.624;23.334;2023-12-20T09:20:00;72.40;;;55.70;;
12474;SDS011;6302;42.624;23.334;2023-12-20T09:22:27;69.50;;;56.50;;
12474;SDS011;6302;42.624;23.334;2023-12-20T09:24:54;72.57;;;55.23;;
12474;SDS011;6302;42.624;23.334;2023-12-20T09:27:21;75.37;;;56.50;;
12474;SDS011;6302;42.624;23.334;2023-12-20T09:29:47;74.03;;;57.83;;
12474;SDS011;6302;42.624;23.334;2023-12-20T09:32:16;69.80;;;54.77;;
12474;SDS011;6302;42.624;23.334;2023-12-20T09:34:42;67.33;;;53.13;;
12474;SDS011;6302;42.624;23.334;2023-12-20T09:37:09;61.63;;;48.93;;
12474;SDS011;6302;42.624;23.334;2023-12-20T09:39:36;62.27;;;50.40;;
12474;SDS011;6302;42.624;23.334;2023-12-20T09:42:03;60.50;;;46.27;;
12474;SDS011;6302;42.624;23.334;2023-12-20T09:44:31;60.43;;;44.87;;
12474;SDS011;6302;42.624;23.334;2023-12-20T09:46:59;56.33;;;43.97;;
12474;SDS011;6302;42.624;23.334;2023-12-20T09:49:30;55.43;;;41.57;;
12474;SDS011;6302;42.624;23.334;2023-12-20T09:51:59;56.47;;;41.80;;
12474;SDS011;6302;42.624;23.334;2023-12-20T09:54:27;50.47;;;38.87;;
12474;SDS011;6302;42.624;23.334;2023-12-20T09:56:55;50.20;;;36.73;;
12474;SDS011;6302;42.624;23.334;2023-12-20T09:59:22;49.20;;;39.57;;
12474;SDS011;6302;42.624;23.334;2023-12-20T10:01:49;53.17;;;40.97;;
12474;SDS011;6302;42.624;23.334;2023-12-20T10:04:17;53.50;;;37.73;;
12474;SDS011;6302;42.624;23.334;2023-12-20T10:06:46;51.17;;;36.93;;
12474;SDS011;6302;42.624;23.334;2023-12-20T10:09:13;52.27;;;38.37;;
12474;SDS011;6302;42.624;23.334;2023-12-20T10:11:40;49.97;;;35.93;;
12474;SDS011;6302;42.624;23.334;2023-12-20T10:14:07;48.00;;;34.67;;
12474;SDS011;6302;42.624;23.334;2023-12-20T10:16:34;57.77;;;40.77;;
12474;SDS011;6302;42.624;23.334;2023-12-20T10:19:01;53.87;;;39.00;;
12474;SDS011;6302;42.624;23.334;2023-12-20T10:21:27;53.70;;;39.80;;
12474;SDS011;6302;42.624;23.334;2023-12-20T10:23:56;56.90;;;41.83;;
12474;SDS011;6302;42.624;23.334;2023-12-20T10:26:24;53.50;;;40.83;;
12474;SDS011;6302;42.624;23.334;2023-12-20T10:28:52;58.57;;;46.50;;
12474;SDS011;6302;42.624;23.334;2023-12-20T10:31:27;64.10;;;47.27;;
12474;SDS011;6302;42.624;23.334;2023-12-20T10:33:55;57.50;;;45.83;;
12474;SDS011;6302;42.624;23.334;2023-12-20T10:36:23;60.83;;;44.90;;
12474;SDS011;6302;42.624;23.334;2023-12-20T10:38:51;58.40;;;41.67;;
12474;SDS011;6302;42.624;23.334;2023-12-20T10:41:21;53.93;;;43.23;;
12474;SDS011;6302;42.624;23.334;2023-12-20T10:43:52;62.80;;;44.73;;
12474;SDS011;6302;42.624;23.334;2023-12-20T10:46:21;64.13;;;46.13;;
12474;SDS011;6302;42.624;23.334;2023-12-20T10:48:48;61.00;;;45.77;;
12474;SDS011;6302;42.624;23.334;2023-12-20T10:51:18;59.47;;;45.63;;
12474;SDS011;6302;42.624;23.334;2023-12-20T10:53:45;52.40;;;41.43;;
12474;SDS011;6302;42.624;23.334;2023-12-20T10:56:15;66.20;;;45.43;;
12474;SDS011;6302;42.624;23.334;2023-12-20T10:58:44;63.20;;;44.00;;
12474;SDS011;6302;42.624;23.334;2023-12-20T11:01:12;64.53;;;47.60;;
12474;SDS011;6302;42.624;23.334;2023-12-20T11:03:39;61.53;;;45.27;;
12474;SDS011;6302;42.624;23.334;2023-12-20T11:06:14;59.33;;;43.97;;
12474;SDS011;6302;42.624;23.334;2023-12-20T11:08:55;59.33;;;43.43;;
12474;SDS011;6302;42.624;23.334;2023-12-20T11:11:35;58.87;;;43.40;;
12474;SDS011;6302;42.624;23.334;2023-12-20T11:14:11;58.83;;;42.87;;
12474;SDS011;6302;42.624;23.334;2023-12-20T11:16:42;60.77;;;42.57;;
12474;SDS011;6302;42.624;23.334;2023-12-20T11:19:10;62.23;;;43.13;;
12474;SDS011;6302;42.624;23.334;2023-12-20T11:21:39;58.93;;;42.70;;
12474;SDS011;6302;42.624;23.334;2023-12-20T11:24:06;60.57;;;43.40;;
12474;SDS011;6302;42.624;23.334;2023-12-20T11:26:33;61.17;;;43.63;;
12474;SDS011;6302;42.624;23.334;2023-12-20T11:31:59;64.83;;;42.73;;
12474;SDS011;6302;42.624;23.334;2023-12-20T11:34:27;59.57;;;42.67;;
12474;SDS011;6302;42.624;23.334;2023-12-20T11:36:58;62.87;;;41.83;;
12474;SDS011;6302;42.624;23.334;2023-12-20T11:39:26;63.50;;;43.90;;
12474;SDS011;6302;42.624;23.334;2023-12-20T11:41:54;62.80;;;43.23;;
12474;SDS011;6302;42.624;23.334;2023-12-20T11:44:22;59.97;;;42.20;;
12474;SDS011;6302;42.624;23.334;2023-12-20T11:46:52;52.53;;;39.53;;
12474;SDS011;6302;42.624;23.334;2023-12-20T11:49:22;56.73;;;40.47;;
12474;SDS011;6302;42.624;23.334;2023-12-20T11:51:50;59.90;;;42.53;;
12474;SDS011;6302;42.624;23.334;2023-12-20T11:54:17;59.37;;;40.60;;
12474;SDS011;6302;42.624;23.334;2023-12-20T11:56:44;60.93;;;44.27;;
12474;SDS011;6302;42.624;23.334;2023-12-20T11:59:11;57.50;;;40.83;;
12474;SDS011;6302;42.624;23.334;2023-12-20T12:01:38;62.27;;;43.43;;
12474;SDS011;6302;42.624;23.334;2023-12-20T12:04:06;62.87;;;42.63;;
12474;SDS011;6302;42.624;23.334;2023-12-20T12:06:33;60.70;;;42.60;;
12474;SDS011;6302;42.624;23.334;2023-12-20T12:09:00;60.10;;;41.23;;
12474;SDS011;6302;42.624;23.334;2023-12-20T12:11:29;57.83;;;40.80;;
12474;SDS011;6302;42.624;23.334;2023-12-20T12:13:56;61.10;;;41.77;;
12474;SDS011;6302;42.624;23.334;2023-12-20T12:16:23;59.07;;;41.97;;
12474;SDS011;6302;42.624;23.334;2023-12-20T12:18:55;63.50;;;41.37;;
12474;SDS011;6302;42.624;23.334;2023-12-20T12:21:23;53.83;;;40.30;;
12474;SDS011;6302;42.624;23.334;2023-12-20T12:23:50;57.67;;;42.40;;
12474;SDS011;6302;42.624;23.334;2023-12-20T12:26:18;60.00;;;40.73;;
12474;SDS011;6302;42.624;23.334;2023-12-20T12:28:45;57.83;;;41.57;;
12474;SDS011;6302;42.624;23.334;2023-12-20T12:31:15;57.47;;;42.93;;
12474;SDS011;6302;42.624;23.334;2023-12-20T12:33:42;70.27;;;44.00;;
12474;SDS011;6302;42.624;23.334;2023-12-20T12:36:09;59.37;;;42.50;;
12474;SDS011;6302;42.624;23.334;2023-12-20T12:38:38;60.10;;;42.80;;
12474;SDS011;6302;42.624;23.334;2023-12-20T12:41:04;55.13;;;41.43;;
12474;SDS011;6302;42.624;23.334;2023-12-20T12:43:32;58.30;;;42.63;;
12474;SDS011;6302;42.624;23.334;2023-12-20T12:46:00;58.03;;;41.90;;
12474;SDS011;6302;42.624;23.334;2023-12-20T12:48:26;59.80;;;43.70;;
12474;SDS011;6302;42.624;23.334;2023-12-20T12:50:54;57.17;;;42.37;;
12474;SDS011;6302;42.624;23.334;2023-12-20T12:53:24;61.60;;;45.57;;
12474;SDS011;6302;42.624;23.334;2023-12-20T12:55:53;64.87;;;46.00;;
12474;SDS011;6302;42.624;23.334;2023-12-20T12:58:20;63.50;;;46.80;;
12474;SDS011;6302;42.624;23.334;2023-12-20T13:00:47;67.33;;;46.33;;
12474;SDS011;6302;42.624;23.334;2023-12-20T13:03:14;65.13;;;47.80;;
12474;SDS011;6302;42.624;23.334;2023-12-20T13:05:41;69.00;;;47.30;;
12474;SDS011;6302;42.624;23.334;2023-12-20T13:08:09;63.07;;;46.90;;
12474;SDS011;6302;42.624;23.334;2023-12-20T13:10:37;62.30;;;46.07;;
12474;SDS011;6302;42.624;23.334;2023-12-20T13:13:05;59.63;;;44.37;;
12474;SDS011;6302;42.624;23.334;2023-12-20T13:15:32;62.13;;;44.30;;
12474;SDS011;6302;42.624;23.334;2023-12-20T13:17:58;66.53;;;46.20;;
12474;SDS011;6302;42.624;23.334;2023-12-20T13:20:26;58.67;;;42.17;;
12474;SDS011;6302;42.624;23.334;2023-12-20T13:22:52;94.37;;;59.87;;
12474;SDS011;6302;42.624;23.334;2023-12-20T13:25:19;70.13;;;48.97;;
12474;SDS011;6302;42.624;23.334;2023-12-20T13:27:46;63.03;;;46.17;;
12474;SDS011;6302;42.624;23.334;2023-12-20T13:30:14;56.03;;;41.50;;
12474;SDS011;6302;42.624;23.334;2023-12-20T13:32:42;61.93;;;43.43;;
12474;SDS011;6302;42.624;23.334;2023-12-20T13:35:09;56.43;;;42.93;;
12474;SDS011;6302;42.624;23.334;2023-12-20T13:37:36;59.87;;;44.63;;
12474;SDS011;6302;42.624;23.334;2023-12-20T13:40:03;63.53;;;45.17;;
12474;SDS011;6302;42.624;23.334;2023-12-20T13:42:31;58.37;;;44.00;;
12474;SDS011;6302;42.624;23.334;2023-12-20T13:44:57;68.67;;;48.27;;
12474;SDS011;6302;42.624;23.334;2023-12-20T13:47:26;76.67;;;59.13;;
12474;SDS011;6302;42.624;23.334;2023-12-20T13:49:52;84.70;;;59.27;;
12474;SDS011;6302;42.624;23.334;2023-12-20T13:52:19;76.37;;;55.83;;
12474;SDS011;6302;42.624;23.334;2023-12-20T13:54:46;67.20;;;48.37;;
12474;SDS011;6302;42.624;23.334;2023-12-20T13:57:13;63.30;;;47.07;;
12474;SDS011;6302;42.624;23.334;2023-12-20T13:59:40;67.80;;;51.03;;
12474;SDS011;6302;42.624;23.334;2023-12-20T14:02:07;72.50;;;55.73;;
12474;SDS011;6302;42.624;23.334;2023-12-20T14:04:35;64.17;;;48.00;;
12474;SDS011;6302;42.624;23.334;2023-12-20T14:07:04;90.57;;;65.63;;
12474;SDS011;6302;42.624;23.334;2023-12-20T14:09:32;82.40;;;58.63;;
12474;SDS011;6302;42.624;23.334;2023-12-20T14:11:59;71.23;;;51.10;;
12474;SDS011;6302;42.624;23.334;2023-12-20T14:14:26;67.77;;;49.67;;
12474;SDS011;6302;42.624;23.334;2023-12-20T14:16:52;62.70;;;46.00;;
12474;SDS011;6302;42.624;23.334;2023-12-20T14:19:19;56.87;;;41.97;;
12474;SDS011;6302;42.624;23.334;2023-12-20T14:21:47;51.60;;;40.17;;
12474;SDS011;6302;42.624;23.334;2023-12-20T14:36:36;61.77;;;43.77;;
12474;SDS011;6302;42.624;23.334;2023-12-20T15:10:01;67.87;;;45.23;;